Terminal Aerodrome Forecast
Issued by NWS Aberdeen, SD

Home | Current Version | Previous Version | Text Only | Print | Product List | Glossary On
Versions: 1 2 3 4 5 6 7 8 9 10 11 12 13 14 15 16 17 18 19 20 21 22 23 24 25 26 27 28 29 30 31 32 33 34 35 36 37 38 39 40 41 42
000
FTAK31 PAFA 250059 AAA
TAFABR
TAF AMD
PABR 250059Z 2501/2524 09009KT 5SM BR BKN005 OVC015
      TEMPO 2501/2504 1/2SM FZFG OVC003
     FM250400 08012KT 2SM -SN BR BKN005 OVC012=

USA.gov is the U.S. government's official web portal to all federal, state and local government web resources and services.